Accueil
METAR-TAF:

METAR-TAF

Aéroports :

Aéroport de Pau-Pyrénées

Pau, France

latitude: 43-23N, longitude: 000-25W, altitude: 188 m

Observation

Le bulletin a été fait il y a 39 minutes, à 08:30 UTC
Vent 4 kt de est/sud-est
Température 10°C
Humidité 87%
Pression 1017 hPa
Visibilité 10 km ou plus
pas de nuages en-dessous de 1500 mètres et pas de cumulonimbus.

METAR: LFBP 170830Z AUTO 12004KT CAVOK 10/08 Q1017 NOSIG

Heure: 10:09 (09:09 UTC)

Prévision

Le bulletin a été fait il y a 4 heures et 9 minutes, à 05:00 UTC
Prévision valable du 17 à 06 UTC au 18 à 06 UTC
Vent 4 kt de est/sud-est
Visibilité 10 km ou plus
pas de nuages en-dessous de 1500 mètres et pas de cumulonimbus.
Probabilité 30% :
Temporairement
du 17 à 06 UTC au 17 à 08 UTC
Visibilité: 3000 m
brume

TAF: LFBP 170500Z 1706/1806 12004KT CAVOK PROB30 TEMPO 1706/1708 3000 BR

Observations et prévisions météorologiques de plus de 4000 aéroports (messages METAR et TAF).

Les stations disponibles sont représentées par des disques jaunes et rouges sur la carte.

Passer la souris dessus pour voir le nom de la station.

Cliquer dessus pour voir les observations et prévisions météorologiques.

Pour changer de carte: cliquez sur les boutons verts avec une croix noire pour zoomer, sur le bouton vert avec un tiret pour effectuer un zoom arrière, ou sur les flèches vertes pour les cartes adjacentes.


METAR-TAF: